Time;durP1;ratioP1;P1;durP2;ratioP2;P2;SDS_P1;SDS_P2;PMS_P1;PMS_P2;Temp;Humidity;BMP_temperature;BMP_pressure;BME280_temperature;BME280_humidity;BME280_pressure;Samples;Min_cycle;Max_cycle;Signal;HPM_P1;HPM_P2
2023/05/13 00:01:56;;;;;;;2.37;2.23;;;;;;;;;;5001815;28;20201;-57
2023/05/13 00:04:25;;;;;;;2.63;2.47;;;;;;;;;;4997955;28;20216;-57
2023/05/13 00:06:52;;;;;;;2.43;2.33;;;;;;;;;;5005903;28;20201;-57
2023/05/13 00:09:19;;;;;;;2.60;2.23;;;;;;;;;;5005888;28;20301;-58
2023/05/13 00:11:46;;;;;;;2.40;2.20;;;;;;;;;;5006746;28;20212;-57
2023/05/13 00:14:13;;;;;;;2.80;2.27;;;;;;;;;;5006349;28;20223;-58
2023/05/13 00:16:40;;;;;;;2.43;2.30;;;;;;;;;;5007479;28;20205;-58
2023/05/13 00:19:07;;;;;;;2.80;2.60;;;;;;;;;;5002330;28;20227;-57
2023/05/13 00:21:35;;;;;;;2.10;2.00;;;;;;;;;;5003983;28;20225;-58
2023/05/13 00:24:02;;;;;;;2.83;2.27;;;;;;;;;;5006589;28;20221;-57
2023/05/13 00:26:29;;;;;;;3.57;2.10;;;;;;;;;;5004002;28;20663;-58
2023/05/13 00:28:56;;;;;;;2.33;2.23;;;;;;;;;;5006144;28;20267;-58
2023/05/13 00:31:23;;;;;;;2.10;2.00;;;;;;;;;;5008167;28;20297;-58
2023/05/13 00:33:50;;;;;;;2.47;2.23;;;;;;;;;;5006370;28;20218;-58
2023/05/13 00:36:17;;;;;;;3.90;2.50;;;;;;;;;;5006993;28;20208;-58
2023/05/13 00:38:46;;;;;;;2.57;2.47;;;;;;;;;;5008987;28;20293;-57
2023/05/13 00:41:13;;;;;;;2.07;2.07;;;;;;;;;;5008269;28;20209;-58
2023/05/13 00:43:40;;;;;;;2.23;2.20;;;;;;;;;;5008423;28;20213;-57
2023/05/13 00:46:07;;;;;;;2.70;2.50;;;;;;;;;;5008476;28;20973;-56
2023/05/13 00:48:34;;;;;;;2.20;2.17;;;;;;;;;;5006183;28;20201;-57
2023/05/13 00:51:01;;;;;;;2.63;2.50;;;;;;;;;;5008802;28;20399;-56
2023/05/13 00:53:28;;;;;;;2.43;2.33;;;;;;;;;;5005089;28;20217;-57
2023/05/13 00:55:56;;;;;;;3.33;2.07;;;;;;;;;;5001925;28;20263;-57
2023/05/13 00:58:23;;;;;;;2.30;2.10;;;;;;;;;;5004528;28;20240;-57
2023/05/13 01:00:55;;;;;;;2.03;1.93;;;;;;;;;;5003589;28;20256;-57
2023/05/13 01:03:27;;;;;;;2.30;2.20;;;;;;;;;;4999446;28;20216;-58
2023/05/13 01:05:59;;;;;;;2.17;2.07;;;;;;;;;;5002343;28;20235;-57
2023/05/13 01:08:38;;;;;;;2.63;2.30;;;;;;;;;;4998761;28;20295;-57
2023/05/13 01:11:09;;;;;;;2.40;2.30;;;;;;;;;;4990298;28;20212;-57
2023/05/13 01:13:42;;;;;;;2.47;2.27;;;;;;;;;;5007649;28;20232;-57
2023/05/13 01:16:12;;;;;;;2.37;2.27;;;;;;;;;;4998897;28;20213;-57
2023/05/13 01:18:42;;;;;;;2.10;2.00;;;;;;;;;;4996690;28;20249;-57
2023/05/13 01:21:10;;;;;;;2.40;2.20;;;;;;;;;;5004754;28;20367;-57
2023/05/13 01:23:38;;;;;;;1.87;1.87;;;;;;;;;;4977717;28;20264;-58
2023/05/13 01:26:05;;;;;;;2.40;2.27;;;;;;;;;;4973028;28;20206;-57
2023/05/13 01:28:33;;;;;;;1.90;1.80;;;;;;;;;;4974110;28;20213;-57
2023/05/13 01:31:00;;;;;;;2.10;2.00;;;;;;;;;;4979073;28;20206;-57
2023/05/13 01:33:27;;;;;;;2.03;2.03;;;;;;;;;;4985764;28;20699;-57
2023/05/13 01:35:55;;;;;;;2.57;2.40;;;;;;;;;;4985916;28;20209;-57
2023/05/13 01:38:22;;;;;;;2.17;2.07;;;;;;;;;;4986169;28;20902;-58
2023/05/13 01:40:51;;;;;;;2.33;2.23;;;;;;;;;;4986727;28;20216;-57
2023/05/13 01:43:18;;;;;;;6.50;2.50;;;;;;;;;;4984479;28;21013;-58
2023/05/13 01:48:49;;;;;;;1.73;1.63;;;;;;;;;;4981619;28;20399;-57
2023/05/13 01:51:16;;;;;;;2.07;1.97;;;;;;;;;;4979154;28;20214;-57
2023/05/13 01:53:43;;;;;;;1.97;1.87;;;;;;;;;;4988222;28;20209;-57
2023/05/13 01:56:11;;;;;;;3.10;2.53;;;;;;;;;;4987096;28;20272;-57
2023/05/13 01:58:38;;;;;;;2.10;2.00;;;;;;;;;;4980491;28;20748;-57
2023/05/13 02:01:05;;;;;;;2.20;2.00;;;;;;;;;;4980931;28;20217;-57
2023/05/13 02:03:32;;;;;;;2.10;2.00;;;;;;;;;;4975399;28;20362;-57
2023/05/13 02:05:59;;;;;;;2.03;1.93;;;;;;;;;;4973279;28;20198;-57
2023/05/13 02:08:26;;;;;;;2.50;1.60;;;;;;;;;;4983462;28;20206;-57
2023/05/13 02:10:56;;;;;;;2.03;1.93;;;;;;;;;;4976170;28;20221;-57
2023/05/13 02:13:25;;;;;;;1.87;1.80;;;;;;;;;;4974177;28;20218;-58
2023/05/13 02:15:52;;;;;;;1.77;1.77;;;;;;;;;;4986536;28;20209;-57
2023/05/13 02:18:19;;;;;;;3.30;1.90;;;;;;;;;;4985383;28;20642;-57
2023/05/13 02:20:46;;;;;;;2.07;1.97;;;;;;;;;;4981401;28;20377;-57
2023/05/13 02:23:14;;;;;;;2.20;2.10;;;;;;;;;;5000503;28;20253;-57
2023/05/13 02:25:41;;;;;;;2.00;1.90;;;;;;;;;;4997835;28;20300;-57
2023/05/13 02:28:08;;;;;;;1.70;1.70;;;;;;;;;;4998952;28;20204;-57
2023/05/13 02:30:37;;;;;;;2.17;1.97;;;;;;;;;;5000375;28;20255;-57
2023/05/13 02:33:04;;;;;;;1.93;1.83;;;;;;;;;;5003555;28;20311;-57
2023/05/13 02:35:31;;;;;;;2.07;1.97;;;;;;;;;;4989867;28;20275;-57
2023/05/13 02:37:58;;;;;;;4.83;1.90;;;;;;;;;;5004537;28;20217;-57
2023/05/13 02:40:25;;;;;;;1.93;1.93;;;;;;;;;;4990958;28;20740;-57
2023/05/13 02:42:52;;;;;;;1.90;1.80;;;;;;;;;;4999831;28;20198;-57
2023/05/13 02:45:19;;;;;;;2.00;1.90;;;;;;;;;;4996544;28;20210;-57
2023/05/13 02:47:47;;;;;;;3.27;2.13;;;;;;;;;;4991557;28;20213;-57
2023/05/13 02:50:14;;;;;;;2.20;2.10;;;;;;;;;;4987836;28;20193;-57
2023/05/13 02:52:41;;;;;;;1.70;1.60;;;;;;;;;;4994752;28;20338;-57
2023/05/13 02:55:09;;;;;;;2.13;2.03;;;;;;;;;;5005134;28;20212;-57
2023/05/13 02:57:37;;;;;;;1.43;1.43;;;;;;;;;;4991251;28;20220;-57
2023/05/13 03:00:05;;;;;;;1.40;1.40;;;;;;;;;;4987376;28;20328;-57
2023/05/13 03:02:32;;;;;;;1.83;1.83;;;;;;;;;;4992318;28;20565;-57
2023/05/13 03:05:00;;;;;;;1.77;1.77;;;;;;;;;;5006658;28;20217;-57
2023/05/13 03:07:27;;;;;;;2.00;1.90;;;;;;;;;;5000506;28;20198;-57
2023/05/13 03:09:54;;;;;;;1.60;1.50;;;;;;;;;;5007364;28;20216;-57
2023/05/13 03:12:21;;;;;;;1.80;1.80;;;;;;;;;;4994050;28;20209;-57
2023/05/13 03:14:48;;;;;;;1.97;1.93;;;;;;;;;;4997238;28;20205;-57
2023/05/13 03:17:15;;;;;;;1.83;1.83;;;;;;;;;;4995152;28;20202;-57
2023/05/13 03:19:42;;;;;;;2.80;1.80;;;;;;;;;;5003621;28;20243;-57
2023/05/13 03:22:11;;;;;;;6.23;1.87;;;;;;;;;;5005394;28;20879;-57
2023/05/13 03:24:38;;;;;;;1.93;1.83;;;;;;;;;;5003491;28;20216;-57
2023/05/13 03:27:05;;;;;;;1.30;1.30;;;;;;;;;;5002580;28;20619;-57
2023/05/13 03:29:32;;;;;;;2.80;2.17;;;;;;;;;;5004930;28;20326;-56
2023/05/13 03:31:59;;;;;;;1.80;1.75;;;;;;;;;;5004465;28;20208;-57
2023/05/13 03:34:26;;;;;;;1.95;1.85;;;;;;;;;;5006184;28;20418;-57
2023/05/13 03:36:53;;;;;;;2.43;2.27;;;;;;;;;;5005616;28;20212;-57
2023/05/13 03:39:22;;;;;;;2.30;1.77;;;;;;;;;;4990055;28;20291;-57
2023/05/13 03:41:49;;;;;;;2.20;2.10;;;;;;;;;;5002673;28;20214;-60
2023/05/13 03:44:16;;;;;;;2.10;2.10;;;;;;;;;;4990841;28;20239;-57
2023/05/13 03:46:43;;;;;;;1.80;1.70;;;;;;;;;;4991846;28;20213;-57
2023/05/13 03:49:10;;;;;;;1.70;1.70;;;;;;;;;;4997670;28;20289;-57
2023/05/13 03:51:37;;;;;;;1.83;1.73;;;;;;;;;;4993672;28;20619;-57
2023/05/13 03:54:05;;;;;;;1.77;1.77;;;;;;;;;;4999903;28;20575;-57
2023/05/13 03:56:33;;;;;;;3.20;2.20;;;;;;;;;;5001232;28;20617;-57
2023/05/13 03:59:00;;;;;;;2.53;2.30;;;;;;;;;;4988155;28;20221;-57
2023/05/13 04:01:27;;;;;;;4.70;2.67;;;;;;;;;;4987961;28;20268;-57
2023/05/13 04:03:54;;;;;;;3.07;2.87;;;;;;;;;;4998195;28;20217;-57
2023/05/13 04:06:21;;;;;;;2.80;2.60;;;;;;;;;;5003912;28;20223;-58
2023/05/13 04:08:48;;;;;;;3.47;3.27;;;;;;;;;;4992740;28;20212;-57
2023/05/13 04:11:15;;;;;;;3.27;2.97;;;;;;;;;;4996161;28;20210;-57
2023/05/13 04:13:44;;;;;;;9.23;4.03;;;;;;;;;;5000169;28;20228;-57
2023/05/13 04:16:11;;;;;;;3.23;2.90;;;;;;;;;;5006356;28;20209;-57
2023/05/13 04:18:38;;;;;;;2.67;2.47;;;;;;;;;;5005969;28;20212;-57
2023/05/13 04:21:08;;;;;;;3.27;2.97;;;;;;;;;;4997412;28;20222;-57
2023/05/13 04:23:36;;;;;;;3.17;2.97;;;;;;;;;;4999639;28;20243;-57
2023/05/13 04:26:03;;;;;;;2.40;2.20;;;;;;;;;;5005228;28;20205;-57
2023/05/13 04:28:30;;;;;;;1.90;1.80;;;;;;;;;;4993828;28;20213;-57
2023/05/13 04:30:58;;;;;;;2.30;2.20;;;;;;;;;;4991224;28;20213;-56
2023/05/13 04:33:25;;;;;;;2.43;2.17;;;;;;;;;;4997301;28;20213;-57
2023/05/13 04:35:52;;;;;;;2.20;2.10;;;;;;;;;;5005167;28;20210;-57
2023/05/13 04:38:19;;;;;;;1.73;1.73;;;;;;;;;;5005025;28;20867;-59
2023/05/13 04:40:47;;;;;;;1.97;1.87;;;;;;;;;;5002504;28;20225;-57
2023/05/13 04:43:14;;;;;;;2.10;2.00;;;;;;;;;;5002404;28;20236;-56
2023/05/13 04:45:41;;;;;;;2.73;2.33;;;;;;;;;;4996303;28;20649;-57
2023/05/13 04:48:10;;;;;;;2.03;1.97;;;;;;;;;;4988029;28;20279;-57
2023/05/13 04:50:37;;;;;;;1.70;1.57;;;;;;;;;;4988354;28;20624;-57
2023/05/13 04:53:04;;;;;;;1.90;1.87;;;;;;;;;;5001036;28;20217;-57
2023/05/13 04:55:31;;;;;;;2.03;1.93;;;;;;;;;;4999860;28;20280;-57
2023/05/13 04:57:58;;;;;;;1.97;1.87;;;;;;;;;;5007064;28;20220;-57
2023/05/13 05:00:25;;;;;;;2.10;2.00;;;;;;;;;;5005294;28;20240;-56
2023/05/13 05:02:52;;;;;;;1.90;1.80;;;;;;;;;;5005302;28;20867;-57
2023/05/13 05:05:21;;;;;;;2.50;2.30;;;;;;;;;;5008098;28;20236;-57
2023/05/13 05:07:48;;;;;;;1.93;1.93;;;;;;;;;;4991984;28;20293;-57
2023/05/13 05:10:15;;;;;;;1.90;1.80;;;;;;;;;;4994438;28;20198;-57
2023/05/13 05:12:42;;;;;;;2.20;2.07;;;;;;;;;;5012510;28;20324;-57
2023/05/13 05:15:14;;;;;;;4.20;2.13;;;;;;;;;;4990195;28;20206;-57
2023/05/13 05:17:41;;;;;;;2.17;1.97;;;;;;;;;;4996698;28;20886;-57
2023/05/13 05:20:09;;;;;;;3.20;1.47;;;;;;;;;;4999954;28;20236;-57
2023/05/13 05:22:37;;;;;;;2.07;2.07;;;;;;;;;;4993820;28;20244;-57
2023/05/13 05:25:04;;;;;;;2.00;1.93;;;;;;;;;;5001530;28;20217;-57
2023/05/13 05:27:31;;;;;;;7.43;2.23;;;;;;;;;;5006078;28;20216;-57
2023/05/13 05:29:58;;;;;;;2.37;2.27;;;;;;;;;;4993718;28;20209;-57
2023/05/13 05:32:25;;;;;;;2.87;2.00;;;;;;;;;;4994027;28;20213;-57
2023/05/13 05:34:52;;;;;;;2.03;1.93;;;;;;;;;;4989429;28;20213;-57
2023/05/13 05:37:19;;;;;;;2.20;2.10;;;;;;;;;;5004461;28;20558;-57
2023/05/13 05:39:48;;;;;;;2.40;2.30;;;;;;;;;;5007430;28;20670;-57
2023/05/13 05:42:15;;;;;;;2.38;2.17;;;;;;;;;;4994499;28;20197;-58
2023/05/13 05:44:42;;;;;;;2.10;2.00;;;;;;;;;;5008381;28;20213;-56
2023/05/13 05:47:09;;;;;;;1.85;1.75;;;;;;;;;;5006350;28;20569;-57
2023/05/13 05:49:36;;;;;;;2.55;2.35;;;;;;;;;;5007414;28;20705;-58
2023/05/13 05:52:04;;;;;;;2.50;2.30;;;;;;;;;;5008060;28;20208;-58
2023/05/13 05:54:31;;;;;;;4.60;2.70;;;;;;;;;;5007115;28;20211;-58
2023/05/13 05:56:59;;;;;;;2.70;2.50;;;;;;;;;;5006300;28;20217;-58
2023/05/13 05:59:26;;;;;;;2.40;2.30;;;;;;;;;;5004548;28;20328;-57
2023/05/13 06:01:53;;;;;;;2.65;2.45;;;;;;;;;;5004953;28;20236;-58
2023/05/13 06:04:20;;;;;;;2.40;2.20;;;;;;;;;;5007863;28;20224;-58
2023/05/13 06:06:48;;;;;;;1.92;1.83;;;;;;;;;;5007992;28;20206;-58
2023/05/13 06:09:15;;;;;;;5.03;2.97;;;;;;;;;;5005661;28;20208;-58
2023/05/13 06:11:42;;;;;;;1.50;1.50;;;;;;;;;;5004185;28;20209;-58
2023/05/13 06:14:10;;;;;;;1.80;1.70;;;;;;;;;;5007433;28;20208;-58
2023/05/13 06:16:37;;;;;;;1.50;1.50;;;;;;;;;;5005077;28;20209;-58
2023/05/13 06:19:04;;;;;;;2.80;2.60;;;;;;;;;;5006024;28;20201;-59
2023/05/13 06:21:31;;;;;;;3.92;2.22;;;;;;;;;;5002715;28;20225;-59
2023/05/13 06:23:58;;;;;;;1.80;1.80;;;;;;;;;;5007177;28;20248;-59
2023/05/13 06:26:25;;;;;;;2.67;2.47;;;;;;;;;;5008577;28;20571;-58
2023/05/13 06:28:52;;;;;;;2.03;1.92;;;;;;;;;;5007659;28;20280;-59
2023/05/13 06:31:21;;;;;;;3.63;1.45;;;;;;;;;;5002265;28;20232;-59
2023/05/13 06:33:48;;;;;;;1.27;1.27;;;;;;;;;;4998914;28;20239;-59
2023/05/13 06:36:15;;;;;;;1.48;1.45;;;;;;;;;;4994911;28;20198;-58
2023/05/13 06:38:42;;;;;;;1.98;1.98;;;;;;;;;;5001645;28;20675;-59
2023/05/13 06:41:09;;;;;;;1.92;1.83;;;;;;;;;;5006480;28;20726;-60
2023/05/13 06:43:37;;;;;;;1.52;1.40;;;;;;;;;;5007069;28;20205;-60
2023/05/13 06:46:04;;;;;;;1.60;1.50;;;;;;;;;;5007821;28;20244;-60
2023/05/13 06:48:33;;;;;;;1.20;1.20;;;;;;;;;;4997546;28;20208;-58
2023/05/13 06:51:00;;;;;;;1.40;1.40;;;;;;;;;;4999930;28;20259;-59
2023/05/13 06:53:27;;;;;;;7.22;1.30;;;;;;;;;;4997476;28;20244;-58
2023/05/13 06:55:54;;;;;;;2.67;1.25;;;;;;;;;;4988289;28;20683;-61
2023/05/13 06:58:21;;;;;;;1.20;1.20;;;;;;;;;;4990404;28;20209;-59
2023/05/13 07:00:48;;;;;;;1.38;1.00;;;;;;;;;;4999274;28;20236;-59
2023/05/13 07:03:15;;;;;;;1.17;1.13;;;;;;;;;;5005490;28;20205;-59
2023/05/13 07:05:43;;;;;;;2.80;1.40;;;;;;;;;;5001611;28;20690;-58
2023/05/13 07:08:16;;;;;;;1.35;1.35;;;;;;;;;;5005484;28;20216;-58
2023/05/13 07:10:43;;;;;;;1.10;1.10;;;;;;;;;;5001736;28;21018;-58
2023/05/13 07:13:11;;;;;;;1.20;1.20;;;;;;;;;;4994564;28;20210;-59
2023/05/13 07:15:38;;;;;;;1.30;1.30;;;;;;;;;;5006625;28;20235;-58
2023/05/13 07:18:05;;;;;;;1.00;1.00;;;;;;;;;;4991873;28;20311;-59
2023/05/13 07:20:32;;;;;;;1.10;1.00;;;;;;;;;;4995821;28;20695;-56
2023/05/13 07:23:00;;;;;;;1.02;1.00;;;;;;;;;;4993580;28;20241;-58
2023/05/13 07:25:27;;;;;;;1.25;1.23;;;;;;;;;;4987637;28;20743;-59
2023/05/13 07:27:54;;;;;;;1.10;1.10;;;;;;;;;;4995138;28;20293;-60
2023/05/13 07:30:21;;;;;;;1.48;1.27;;;;;;;;;;4991157;28;20208;-59
2023/05/13 07:32:48;;;;;;;3.03;1.23;;;;;;;;;;5005921;28;20829;-59
2023/05/13 07:35:16;;;;;;;1.20;1.20;;;;;;;;;;5007466;28;20219;-59
2023/05/13 07:37:43;;;;;;;1.10;1.00;;;;;;;;;;4994270;28;20514;-60
2023/05/13 07:40:13;;;;;;;1.00;1.00;;;;;;;;;;4987813;28;20233;-59
2023/05/13 07:42:40;;;;;;;1.30;1.17;;;;;;;;;;4987537;28;20546;-60
2023/05/13 07:45:08;;;;;;;4.13;1.33;;;;;;;;;;5003172;28;20213;-59
2023/05/13 07:47:35;;;;;;;0.93;0.93;;;;;;;;;;5004313;28;20213;-59
2023/05/13 07:50:02;;;;;;;1.10;1.10;;;;;;;;;;5005859;28;20255;-60
2023/05/13 07:52:29;;;;;;;1.15;1.15;;;;;;;;;;5004033;28;20287;-60
2023/05/13 07:54:56;;;;;;;1.20;1.20;;;;;;;;;;4988413;28;20209;-59
2023/05/13 07:57:24;;;;;;;1.08;1.08;;;;;;;;;;5006382;28;20217;-59
2023/05/13 07:59:53;;;;;;;1.17;0.95;;;;;;;;;;5004239;28;20554;-59
2023/05/13 08:02:20;;;;;;;1.10;1.10;;;;;;;;;;5001696;28;20217;-60
2023/05/13 08:04:47;;;;;;;4.18;1.00;;;;;;;;;;4990556;28;20209;-59
2023/05/13 08:07:14;;;;;;;1.00;1.00;;;;;;;;;;4987450;28;20224;-59
2023/05/13 08:09:41;;;;;;;1.30;1.30;;;;;;;;;;4987933;28;20205;-59
2023/05/13 08:12:08;;;;;;;0.95;0.95;;;;;;;;;;4994502;28;20209;-60
2023/05/13 08:14:37;;;;;;;1.00;1.00;;;;;;;;;;5005195;28;20212;-59
2023/05/13 08:17:05;;;;;;;0.95;0.95;;;;;;;;;;5002043;28;20216;-59
2023/05/13 08:19:32;;;;;;;1.00;1.00;;;;;;;;;;4990253;28;20297;-58
2023/05/13 08:21:59;;;;;;;1.10;1.10;;;;;;;;;;4992187;28;20253;-60
2023/05/13 08:24:26;;;;;;;1.35;1.35;;;;;;;;;;4999442;28;20213;-59
2023/05/13 08:26:53;;;;;;;1.45;1.45;;;;;;;;;;4993424;28;20541;-60
2023/05/13 08:29:20;;;;;;;1.20;1.20;;;;;;;;;;5008191;28;20220;-59
2023/05/13 08:31:49;;;;;;;1.10;1.10;;;;;;;;;;5007260;28;20205;-58
2023/05/13 08:34:17;;;;;;;1.00;1.00;;;;;;;;;;5008081;28;20271;-59
2023/05/13 08:36:44;;;;;;;0.73;0.73;;;;;;;;;;4990798;28;20213;-58
2023/05/13 08:39:11;;;;;;;1.00;1.00;;;;;;;;;;4989713;28;20579;-57
2023/05/13 08:41:38;;;;;;;4.03;1.20;;;;;;;;;;5001764;28;20331;-57
2023/05/13 08:44:06;;;;;;;1.20;1.20;;;;;;;;;;5005927;28;20213;-58
2023/05/13 08:46:34;;;;;;;1.85;1.30;;;;;;;;;;5004678;28;20212;-58
2023/05/13 08:49:04;;;;;;;2.05;1.00;;;;;;;;;;5015685;28;20237;-57
2023/05/13 08:51:31;;;;;;;1.25;1.25;;;;;;;;;;4991237;28;20730;-57
2023/05/13 08:54:22;;;;;;;1.00;1.00;;;;;;;;;;4992110;28;20218;-58
2023/05/13 08:56:50;;;;;;;1.00;1.00;;;;;;;;;;5002454;28;20217;-58
2023/05/13 08:59:17;;;;;;;0.98;0.98;;;;;;;;;;5005798;28;20204;-58
2023/05/13 09:01:44;;;;;;;1.20;1.20;;;;;;;;;;4990527;28;20300;-58
2023/05/13 09:04:13;;;;;;;1.27;1.27;;;;;;;;;;5003626;28;20226;-58
2023/05/13 09:06:40;;;;;;;1.17;1.10;;;;;;;;;;5003449;28;20663;-58
2023/05/13 09:09:08;;;;;;;1.17;1.13;;;;;;;;;;5007617;28;20209;-58
2023/05/13 09:11:35;;;;;;;0.98;0.98;;;;;;;;;;5005898;28;20279;-59
2023/05/13 09:14:06;;;;;;;0.93;0.93;;;;;;;;;;5008383;28;20221;-58
2023/05/13 09:16:35;;;;;;;1.00;1.00;;;;;;;;;;5007021;28;20219;-57
2023/05/13 09:19:04;;;;;;;0.80;0.80;;;;;;;;;;5007849;28;20220;-57
2023/05/13 09:21:34;;;;;;;1.23;1.23;;;;;;;;;;4994563;28;20239;-57
2023/05/13 09:24:08;;;;;;;0.88;0.88;;;;;;;;;;4989373;28;20237;-57
2023/05/13 09:26:35;;;;;;;0.90;0.90;;;;;;;;;;4989080;28;20312;-58
2023/05/13 09:29:18;;;;;;;0.70;0.70;;;;;;;;;;4999801;28;20221;-57
2023/05/13 09:31:45;;;;;;;0.90;0.90;;;;;;;;;;4989675;28;20206;-57
2023/05/13 09:34:12;;;;;;;1.42;1.33;;;;;;;;;;5006580;28;20315;-57
2023/05/13 09:36:41;;;;;;;1.27;1.27;;;;;;;;;;5007340;28;20220;-57
2023/05/13 09:39:08;;;;;;;1.42;1.33;;;;;;;;;;5007046;28;20263;-57
2023/05/13 09:41:35;;;;;;;1.02;1.02;;;;;;;;;;5006382;28;20266;-58
2023/05/13 09:44:03;;;;;;;1.05;1.05;;;;;;;;;;5007230;28;20221;-58
2023/05/13 09:46:33;;;;;;;1.10;1.10;;;;;;;;;;4991400;28;20206;-58
2023/05/13 09:49:00;;;;;;;1.42;1.42;;;;;;;;;;4994697;28;20205;-58
2023/05/13 09:51:27;;;;;;;1.17;1.17;;;;;;;;;;5005618;28;20203;-58
2023/05/13 09:54:03;;;;;;;4.03;1.23;;;;;;;;;;5002996;28;20771;-58
2023/05/13 09:56:30;;;;;;;1.38;1.30;;;;;;;;;;5007303;28;20209;-58
2023/05/13 09:58:57;;;;;;;2.35;1.42;;;;;;;;;;5006501;28;20220;-57
2023/05/13 10:01:25;;;;;;;1.50;1.13;;;;;;;;;;5005854;28;20770;-57
2023/05/13 10:03:53;;;;;;;1.60;1.52;;;;;;;;;;5002382;28;20206;-57
2023/05/13 10:06:21;;;;;;;1.50;1.40;;;;;;;;;;5007319;28;20263;-57
2023/05/13 10:08:49;;;;;;;1.00;1.00;;;;;;;;;;5006462;28;20283;-58
2023/05/13 10:11:18;;;;;;;1.25;1.25;;;;;;;;;;5005870;28;20206;-57
2023/05/13 10:13:47;;;;;;;1.10;1.10;;;;;;;;;;5001413;28;20217;-57
2023/05/13 10:16:15;;;;;;;1.33;1.27;;;;;;;;;;5007464;28;20221;-57
2023/05/13 10:18:42;;;;;;;1.58;1.58;;;;;;;;;;4996857;28;20225;-57
2023/05/13 10:21:09;;;;;;;1.20;1.20;;;;;;;;;;4987977;28;20245;-57
2023/05/13 10:23:37;;;;;;;1.30;1.30;;;;;;;;;;4985335;28;20671;-57
2023/05/13 10:26:04;;;;;;;1.23;1.20;;;;;;;;;;4987682;28;20304;-57
2023/05/13 10:28:33;;;;;;;0.98;0.98;;;;;;;;;;4985491;28;20213;-58
2023/05/13 10:31:00;;;;;;;2.78;1.30;;;;;;;;;;4987568;28;20213;-57
2023/05/13 10:33:28;;;;;;;1.23;1.23;;;;;;;;;;4986492;28;20221;-57
2023/05/13 10:36:01;;;;;;;1.33;1.23;;;;;;;;;;4986799;28;20591;-58
2023/05/13 10:38:33;;;;;;;1.40;1.40;;;;;;;;;;4987486;28;20213;-57
2023/05/13 10:41:07;;;;;;;1.77;1.52;;;;;;;;;;4986499;28;20229;-57
2023/05/13 10:43:36;;;;;;;1.35;1.35;;;;;;;;;;4985298;28;20672;-57
2023/05/13 10:46:05;;;;;;;1.58;1.48;;;;;;;;;;4986284;28;20213;-58
2023/05/13 10:48:39;;;;;;;1.58;1.30;;;;;;;;;;4967782;28;20298;-57
2023/05/13 10:51:06;;;;;;;2.58;1.40;;;;;;;;;;4982237;28;20316;-57
2023/05/13 10:53:55;;;;;;;1.38;1.25;;;;;;;;;;4977327;28;20218;-58
2023/05/13 10:56:23;;;;;;;2.20;1.30;;;;;;;;;;4976855;28;20401;-57
2023/05/13 10:58:59;;;;;;;1.40;1.40;;;;;;;;;;4967562;28;20210;-57
2023/05/13 11:01:28;;;;;;;1.50;1.50;;;;;;;;;;4967061;28;20222;-57
2023/05/13 11:03:56;;;;;;;1.10;1.10;;;;;;;;;;4984042;28;20263;-58
2023/05/13 11:06:25;;;;;;;1.25;1.25;;;;;;;;;;4985074;28;20209;-58
2023/05/13 11:08:53;;;;;;;1.10;1.10;;;;;;;;;;4980305;28;20205;-59
2023/05/13 11:11:25;;;;;;;1.30;1.30;;;;;;;;;;4984572;28;20210;-59
2023/05/13 11:13:52;;;;;;;1.23;1.23;;;;;;;;;;4973847;28;20569;-59
2023/05/13 11:16:21;;;;;;;1.25;1.25;;;;;;;;;;4979851;28;20588;-59
2023/05/13 11:18:49;;;;;;;1.63;1.63;;;;;;;;;;4976804;28;20214;-59
2023/05/13 11:21:16;;;;;;;1.60;1.35;;;;;;;;;;4985869;28;20713;-59
2023/05/13 11:23:53;;;;;;;1.58;1.58;;;;;;;;;;4988561;28;20814;-59
2023/05/13 11:26:20;;;;;;;1.85;1.85;;;;;;;;;;5001632;28;20197;-59
2023/05/13 11:28:54;;;;;;;1.50;1.50;;;;;;;;;;5005589;28;20237;-60
2023/05/13 11:31:23;;;;;;;6.13;1.35;;;;;;;;;;5002510;28;20212;-60
2023/05/13 11:34:12;;;;;;;1.60;1.58;;;;;;;;;;5002848;28;20220;-60
2023/05/13 11:36:40;;;;;;;2.08;1.77;;;;;;;;;;5003963;28;20213;-59
2023/05/13 11:39:09;;;;;;;3.97;2.50;;;;;;;;;;5002331;28;20271;-60
2023/05/13 11:41:36;;;;;;;3.63;1.90;;;;;;;;;;5002681;28;20613;-59
2023/05/13 11:44:05;;;;;;;1.73;1.65;;;;;;;;;;5004992;28;20212;-59
2023/05/13 11:46:34;;;;;;;2.53;1.88;;;;;;;;;;5005033;28;20678;-59
2023/05/13 11:49:01;;;;;;;1.50;1.40;;;;;;;;;;5004659;28;20713;-59
2023/05/13 11:51:28;;;;;;;1.55;1.55;;;;;;;;;;5000189;28;20237;-60
2023/05/13 11:54:00;;;;;;;2.05;1.50;;;;;;;;;;5005089;28;20303;-59
2023/05/13 11:56:28;;;;;;;1.55;1.45;;;;;;;;;;4985713;28;20655;-59
2023/05/13 11:58:55;;;;;;;1.88;1.23;;;;;;;;;;4984971;28;20275;-59
2023/05/13 12:01:24;;;;;;;1.25;1.15;;;;;;;;;;5001057;28;20221;-60
2023/05/13 12:04:01;;;;;;;2.42;1.58;;;;;;;;;;5007920;28;20212;-59
2023/05/13 12:06:30;;;;;;;1.55;1.55;;;;;;;;;;5008716;28;20548;-59
2023/05/13 12:08:57;;;;;;;1.30;1.30;;;;;;;;;;5007402;28;20224;-60
2023/05/13 12:11:24;;;;;;;1.30;1.20;;;;;;;;;;4992553;28;20653;-60
2023/05/13 12:13:51;;;;;;;1.20;1.20;;;;;;;;;;4988474;28;20731;-60
2023/05/13 12:16:19;;;;;;;1.33;1.33;;;;;;;;;;5008281;28;20589;-60
2023/05/13 12:18:56;;;;;;;1.05;1.05;;;;;;;;;;5000168;28;20747;-60
2023/05/13 12:21:23;;;;;;;0.95;0.95;;;;;;;;;;4997896;28;20248;-58
2023/05/13 12:23:50;;;;;;;1.40;1.27;;;;;;;;;;4990723;28;20741;-58
2023/05/13 12:26:18;;;;;;;6.32;1.20;;;;;;;;;;5004845;28;20212;-58
2023/05/13 12:28:45;;;;;;;1.30;1.30;;;;;;;;;;5006383;28;20291;-59
2023/05/13 12:31:16;;;;;;;0.98;0.98;;;;;;;;;;5000606;28;20202;-58
2023/05/13 12:33:45;;;;;;;1.02;1.02;;;;;;;;;;4987962;28;20218;-59
2023/05/13 12:36:19;;;;;;;1.67;1.58;;;;;;;;;;4989680;28;20213;-59
2023/05/13 12:38:56;;;;;;;1.10;1.10;;;;;;;;;;5002166;28;20292;-59
2023/05/13 12:41:24;;;;;;;3.45;1.13;;;;;;;;;;5006307;28;20680;-58
2023/05/13 12:43:52;;;;;;;1.17;1.00;;;;;;;;;;5008552;28;20615;-59
2023/05/13 12:46:20;;;;;;;1.58;1.17;;;;;;;;;;4995576;28;20304;-58
2023/05/13 12:48:47;;;;;;;1.10;1.10;;;;;;;;;;5007155;28;20204;-59
2023/05/13 12:51:14;;;;;;;0.80;0.80;;;;;;;;;;5008800;28;20737;-59
2023/05/13 12:53:43;;;;;;;1.38;1.15;;;;;;;;;;5008189;28;20219;-59
2023/05/13 12:56:10;;;;;;;0.95;0.95;;;;;;;;;;4999123;28;20240;-59
2023/05/13 12:58:37;;;;;;;0.82;0.82;;;;;;;;;;5008809;28;20213;-59
2023/05/13 13:01:04;;;;;;;1.15;1.15;;;;;;;;;;5003516;28;20257;-59
2023/05/13 13:03:31;;;;;;;0.80;0.80;;;;;;;;;;5006462;28;20229;-57
2023/05/13 13:05:58;;;;;;;1.10;1.10;;;;;;;;;;5008577;28;20275;-58
2023/05/13 13:08:26;;;;;;;1.35;1.23;;;;;;;;;;5005824;28;20833;-58
2023/05/13 13:10:54;;;;;;;4.75;1.10;;;;;;;;;;5000428;28;20672;-58
2023/05/13 13:13:21;;;;;;;1.35;1.35;;;;;;;;;;5005987;28;20205;-58
2023/05/13 13:15:48;;;;;;;1.10;1.10;;;;;;;;;;5007774;28;20212;-58
2023/05/13 13:18:15;;;;;;;1.75;1.00;;;;;;;;;;5007718;28;20255;-58
2023/05/13 13:20:42;;;;;;;0.55;0.55;;;;;;;;;;5006440;28;20793;-59
2023/05/13 13:23:10;;;;;;;1.05;0.95;;;;;;;;;;5005750;28;20244;-58
2023/05/13 13:25:37;;;;;;;1.95;1.02;;;;;;;;;;5007314;28;20232;-58
2023/05/13 13:28:05;;;;;;;0.68;0.68;;;;;;;;;;5016635;28;20212;-58
2023/05/13 13:30:32;;;;;;;0.95;0.95;;;;;;;;;;5008052;28;20205;-59
2023/05/13 13:32:59;;;;;;;1.08;1.08;;;;;;;;;;4999514;28;20260;-58
2023/05/13 13:35:26;;;;;;;0.85;0.75;;;;;;;;;;4987726;28;20672;-61
2023/05/13 13:37:54;;;;;;;1.00;1.00;;;;;;;;;;5006967;28;20263;-60
2023/05/13 13:40:21;;;;;;;1.00;1.00;;;;;;;;;;5002143;28;20267;-58
2023/05/13 13:42:48;;;;;;;1.33;1.33;;;;;;;;;;5000870;28;20232;-58
2023/05/13 13:45:17;;;;;;;0.93;0.93;;;;;;;;;;5003830;28;20209;-59
2023/05/13 13:47:44;;;;;;;1.13;1.13;;;;;;;;;;5004714;28;20698;-58
2023/05/13 13:50:11;;;;;;;0.93;0.93;;;;;;;;;;5002192;28;20213;-58
2023/05/13 13:52:38;;;;;;;1.67;1.58;;;;;;;;;;5006194;28;20255;-59
2023/05/13 13:55:06;;;;;;;1.10;1.05;;;;;;;;;;5005559;28;20235;-58
2023/05/13 13:57:33;;;;;;;1.17;1.17;;;;;;;;;;5003066;28;20691;-58
2023/05/13 14:00:00;;;;;;;1.55;1.13;;;;;;;;;;5007028;28;20271;-58
2023/05/13 14:02:28;;;;;;;1.00;1.00;;;;;;;;;;5006661;28;20279;-58
2023/05/13 14:04:55;;;;;;;0.90;0.90;;;;;;;;;;5006423;28;20209;-58
2023/05/13 14:07:22;;;;;;;1.13;1.13;;;;;;;;;;4995981;28;20207;-59
2023/05/13 14:09:51;;;;;;;1.08;1.08;;;;;;;;;;4987610;28;20645;-58
2023/05/13 14:12:18;;;;;;;1.17;1.17;;;;;;;;;;4986689;28;20210;-58
2023/05/13 14:14:45;;;;;;;2.00;1.05;;;;;;;;;;4987141;28;20671;-59
2023/05/13 14:17:12;;;;;;;3.05;1.17;;;;;;;;;;4997524;28;20655;-59
2023/05/13 14:19:41;;;;;;;1.08;1.00;;;;;;;;;;5006289;28;20237;-58
2023/05/13 14:22:08;;;;;;;1.10;1.10;;;;;;;;;;5006005;28;20245;-59
2023/05/13 14:24:35;;;;;;;1.20;1.20;;;;;;;;;;5005392;28;20610;-59
2023/05/13 14:27:02;;;;;;;1.25;1.25;;;;;;;;;;5003701;28;20213;-58
2023/05/13 14:29:29;;;;;;;1.10;1.10;;;;;;;;;;4987061;28;20217;-58
2023/05/13 14:31:56;;;;;;;1.20;1.20;;;;;;;;;;4994296;28;20213;-59
2023/05/13 14:34:23;;;;;;;1.35;1.27;;;;;;;;;;5006194;28;20212;-59
2023/05/13 14:36:52;;;;;;;0.95;0.95;;;;;;;;;;4994122;28;20586;-59
2023/05/13 14:39:19;;;;;;;1.00;1.00;;;;;;;;;;5006392;28;20221;-58
2023/05/13 14:41:46;;;;;;;0.95;0.95;;;;;;;;;;5000452;28;20209;-59
2023/05/13 14:44:14;;;;;;;1.15;1.15;;;;;;;;;;5006382;28;20217;-58
2023/05/13 14:46:41;;;;;;;0.90;0.90;;;;;;;;;;5006033;28;20201;-58
2023/05/13 14:49:08;;;;;;;0.80;0.80;;;;;;;;;;4989884;28;20245;-58
2023/05/13 14:51:35;;;;;;;0.98;0.98;;;;;;;;;;4996561;28;20206;-58